Time;durP1;ratioP1;P1;durP2;ratioP2;P2;SDS_P1;SDS_P2;PMS_P1;PMS_P2;Temp;Humidity;BMP_temperature;BMP_pressure;BME280_temperature;BME280_humidity;BME280_pressure;Samples;Min_cycle;Max_cycle;Signal;HPM_P1;HPM_P2
2023/05/31 00:01:16;;;;;;;4.30;2.10;;;20.20;44.10;;;;;;5053972;28;20206;-78
2023/05/31 00:03:44;;;;;;;5.33;2.20;;;20.20;43.70;;;;;;5036068;28;20206;-77
2023/05/31 00:06:11;;;;;;;3.23;2.17;;;20.20;43.90;;;;;;5053928;28;20198;-78
2023/05/31 00:08:38;;;;;;;2.63;1.93;;;20.20;43.60;;;;;;5037713;28;20199;-80
2023/05/31 00:11:07;;;;;;;3.23;1.93;;;20.20;43.40;;;;;;5034271;28;20213;-78
2023/05/31 00:13:33;;;;;;;4.80;2.20;;;20.20;43.80;;;;;;5033678;28;20665;-75
2023/05/31 00:16:00;;;;;;;3.07;1.90;;;20.20;43.40;;;;;;5034118;28;20226;-80
2023/05/31 00:18:27;;;;;;;2.83;1.73;;;20.20;43.20;;;;;;5048320;28;20205;-79
2023/05/31 00:20:56;;;;;;;3.67;1.90;;;20.30;43.20;;;;;;5020252;28;20205;-79
2023/05/31 00:23:22;;;;;;;4.70;2.00;;;20.30;43.30;;;;;;5034540;28;20195;-78
2023/05/31 00:25:49;;;;;;;2.90;1.77;;;20.30;43.20;;;;;;5048770;28;20206;-77
2023/05/31 00:28:16;;;;;;;2.67;1.70;;;20.40;43.20;;;;;;5053472;28;20275;-80
2023/05/31 00:30:43;;;;;;;3.00;2.23;;;20.40;43.00;;;;;;5053412;28;20292;-79
2023/05/31 00:33:11;;;;;;;2.47;1.80;;;20.40;42.90;;;;;;5053573;28;20206;-77
2023/05/31 00:35:38;;;;;;;2.63;1.80;;;20.50;42.90;;;;;;5053344;28;20231;-80
2023/05/31 00:38:08;;;;;;;2.43;2.00;;;20.50;43.00;;;;;;5049629;28;20289;-79
2023/05/31 00:40:35;;;;;;;4.23;1.90;;;20.50;43.00;;;;;;5036127;28;20223;-78
2023/05/31 00:43:02;;;;;;;4.57;1.93;;;20.50;43.00;;;;;;5052770;28;20228;-79
2023/05/31 00:45:29;;;;;;;2.10;1.90;;;20.50;43.00;;;;;;5053424;28;20208;-76
2023/05/31 00:47:57;;;;;;;4.03;1.80;;;20.50;42.80;;;;;;5035648;28;20689;-80
2023/05/31 00:50:23;;;;;;;2.33;1.80;;;20.50;42.90;;;;;;5053522;28;20232;-80
2023/05/31 00:52:54;;;;;;;3.80;1.87;;;20.50;43.00;;;;;;5053012;28;20225;-77
2023/05/31 00:55:22;;;;;;;4.43;2.13;;;20.50;43.10;;;;;;5053904;28;20285;-79
2023/05/31 00:57:49;;;;;;;4.87;1.93;;;20.50;43.20;;;;;;5053484;28;20671;-80
2023/05/31 01:00:17;;;;;;;4.27;2.40;;;20.50;42.80;;;;;;5017555;28;20210;-78
2023/05/31 01:02:44;;;;;;;3.13;2.03;;;20.50;42.90;;;;;;5053547;28;20650;-80
2023/05/31 01:05:11;;;;;;;4.40;1.93;;;20.50;43.10;;;;;;5053836;28;20208;-76
2023/05/31 01:07:38;;;;;;;2.93;1.90;;;20.50;43.10;;;;;;5046484;28;20194;-80
2023/05/31 01:10:07;;;;;;;7.13;2.20;;;20.50;43.20;;;;;;5027012;28;20285;-77
2023/05/31 01:12:45;;;;;;;3.93;2.10;;;20.50;43.30;;;;;;5044287;28;20205;-75
2023/05/31 01:15:17;;;;;;;4.83;1.80;;;20.40;43.20;;;;;;5052966;28;20559;-80
2023/05/31 01:17:55;;;;;;;2.00;1.80;;;20.40;43.20;;;;;;5054157;28;20546;-78
2023/05/31 01:20:25;;;;;;;5.43;2.33;;;20.40;43.20;;;;;;5053181;28;20221;-74
2023/05/31 01:23:05;;;;;;;2.90;1.83;;;20.50;43.20;;;;;;5042767;28;20305;-79
2023/05/31 01:25:47;;;;;;;6.10;2.27;;;20.50;43.20;;;;;;5053018;28;20293;-79
2023/05/31 01:28:17;;;;;;;2.30;1.77;;;20.40;43.30;;;;;;5054549;28;20397;-78
2023/05/31 01:30:46;;;;;;;3.17;1.80;;;20.40;43.30;;;;;;5052988;28;20244;-79
2023/05/31 01:33:14;;;;;;;3.00;2.00;;;20.40;43.40;;;;;;5054857;28;20201;-75
2023/05/31 01:35:41;;;;;;;5.27;2.00;;;20.40;43.40;;;;;;5049679;28;20248;-80
2023/05/31 01:38:08;;;;;;;3.63;1.60;;;20.40;43.30;;;;;;5039908;28;20285;-79
2023/05/31 01:40:35;;;;;;;2.77;2.00;;;20.40;43.40;;;;;;5035088;28;20202;-75
2023/05/31 01:43:04;;;;;;;5.77;1.80;;;20.40;43.40;;;;;;5053464;28;20236;-79
2023/05/31 01:45:34;;;;;;;3.07;1.93;;;20.40;43.50;;;;;;5035803;28;20261;-79
2023/05/31 01:48:04;;;;;;;3.97;2.07;;;20.40;43.60;;;;;;5052676;28;20208;-80
2023/05/31 01:50:32;;;;;;;2.50;1.70;;;20.40;43.60;;;;;;5052481;28;20724;-78
2023/05/31 01:52:59;;;;;;;2.87;1.80;;;20.40;43.90;;;;;;5052458;28;20202;-80
2023/05/31 01:55:26;;;;;;;3.23;1.70;;;20.40;43.60;;;;;;5034519;28;20202;-76
2023/05/31 01:57:55;;;;;;;3.07;2.10;;;20.30;43.50;;;;;;5052620;28;20226;-78
2023/05/31 02:00:23;;;;;;;3.53;1.93;;;20.30;43.60;;;;;;5024970;28;20569;-79
2023/05/31 02:02:52;;;;;;;3.30;1.67;;;20.30;43.70;;;;;;5052402;28;20212;-77
2023/05/31 02:05:19;;;;;;;3.77;1.73;;;20.20;44.00;;;;;;5052578;28;20293;-78
2023/05/31 02:07:47;;;;;;;2.63;1.90;;;20.20;44.20;;;;;;5052415;28;20708;-79
2023/05/31 02:10:14;;;;;;;2.43;1.80;;;20.20;44.50;;;;;;5052341;28;20553;-79
2023/05/31 02:12:41;;;;;;;3.03;1.83;;;20.10;44.70;;;;;;5055613;28;20290;-79
2023/05/31 02:15:10;;;;;;;4.07;1.80;;;20.10;44.90;;;;;;5055818;28;20236;-79
2023/05/31 02:17:40;;;;;;;3.40;2.07;;;20.00;44.80;;;;;;5055634;28;20268;-79
2023/05/31 02:20:10;;;;;;;2.43;2.00;;;20.00;44.80;;;;;;5055859;28;20254;-79
2023/05/31 02:22:37;;;;;;;2.93;1.93;;;20.00;44.70;;;;;;5038148;28;20233;-80
2023/05/31 02:25:05;;;;;;;3.37;1.80;;;20.00;44.80;;;;;;5038042;28;20190;-76
2023/05/31 02:27:32;;;;;;;4.00;2.20;;;19.90;44.70;;;;;;5055553;28;20293;-78
2023/05/31 02:29:59;;;;;;;4.10;2.10;;;19.90;44.70;;;;;;5055742;28;20205;-80
2023/05/31 02:32:26;;;;;;;3.90;2.07;;;19.90;44.70;;;;;;5055980;28;20534;-79
2023/05/31 02:34:53;;;;;;;3.03;2.03;;;19.90;44.90;;;;;;5055688;28;20865;-80
2023/05/31 02:37:21;;;;;;;2.50;2.10;;;19.90;44.70;;;;;;5053848;28;20562;-79
2023/05/31 02:39:48;;;;;;;3.97;1.87;;;19.80;44.90;;;;;;5051432;28;20260;-80
2023/05/31 02:42:16;;;;;;;2.23;1.70;;;19.80;45.00;;;;;;5055780;28;20208;-81
2023/05/31 02:44:43;;;;;;;3.07;2.00;;;19.80;44.50;;;;;;5045339;28;20225;-80
2023/05/31 02:47:10;;;;;;;4.93;2.20;;;19.80;45.20;;;;;;5055682;28;20221;-79
2023/05/31 02:49:37;;;;;;;2.60;1.97;;;19.70;45.00;;;;;;5055439;28;20206;-79
2023/05/31 02:52:04;;;;;;;3.00;2.30;;;19.70;45.20;;;;;;5055701;28;20226;-79
2023/05/31 02:54:32;;;;;;;3.00;1.80;;;19.70;45.40;;;;;;5055517;28;20232;-79
2023/05/31 02:57:00;;;;;;;3.20;2.00;;;19.70;45.30;;;;;;5055532;28;20222;-80
2023/05/31 02:59:26;;;;;;;5.20;2.10;;;19.70;45.40;;;;;;5055731;28;20210;-80
2023/05/31 03:01:53;;;;;;;3.80;1.93;;;19.60;45.40;;;;;;5038595;28;20252;-78
2023/05/31 03:04:20;;;;;;;2.90;2.00;;;19.60;45.40;;;;;;5040127;28;20292;-79
2023/05/31 03:06:47;;;;;;;2.77;1.87;;;19.60;45.60;;;;;;5055381;28;20193;-76
2023/05/31 03:09:16;;;;;;;3.13;2.10;;;19.60;45.80;;;;;;5055060;28;20251;-78
2023/05/31 03:11:45;;;;;;;2.70;1.90;;;19.60;45.80;;;;;;5037757;28;20230;-79
2023/05/31 03:14:12;;;;;;;4.97;1.83;;;19.60;46.00;;;;;;5055073;28;20209;-79
2023/05/31 03:16:39;;;;;;;4.10;1.90;;;19.50;46.00;;;;;;5055254;28;20235;-79
2023/05/31 03:19:06;;;;;;;3.40;2.10;;;19.50;46.10;;;;;;5039609;28;20663;-77
2023/05/31 03:21:33;;;;;;;3.27;1.70;;;19.50;46.10;;;;;;5034675;28;20219;-78
2023/05/31 03:24:00;;;;;;;7.90;2.63;;;19.50;46.10;;;;;;5046914;28;20195;-78
2023/05/31 03:26:27;;;;;;;4.53;2.40;;;19.40;46.20;;;;;;5021412;28;20202;-77
2023/05/31 03:28:55;;;;;;;3.07;2.10;;;19.40;46.40;;;;;;5054767;28;20233;-80
2023/05/31 03:31:22;;;;;;;6.17;2.30;;;19.40;46.50;;;;;;5054858;28;20280;-75
2023/05/31 03:33:49;;;;;;;3.93;2.20;;;19.40;46.40;;;;;;5054450;28;20289;-79
2023/05/31 03:36:16;;;;;;;2.93;1.90;;;19.40;46.50;;;;;;5054261;28;20237;-78
2023/05/31 03:38:42;;;;;;;2.80;1.90;;;19.40;46.60;;;;;;5054084;28;20206;-78
2023/05/31 03:41:09;;;;;;;2.47;2.10;;;19.40;46.50;;;;;;5054258;28;20198;-80
2023/05/31 03:43:36;;;;;;;3.33;2.10;;;19.40;46.60;;;;;;5019498;28;20225;-78
2023/05/31 03:46:05;;;;;;;1.93;1.73;;;19.40;46.80;;;;;;5034553;28;20206;-77
2023/05/31 03:48:32;;;;;;;5.23;2.20;;;19.30;46.90;;;;;;5035097;28;20945;-75
2023/05/31 03:51:00;;;;;;;4.33;1.90;;;19.30;46.90;;;;;;5051322;28;20219;-80
2023/05/31 03:53:27;;;;;;;4.10;2.20;;;19.30;47.10;;;;;;5051962;28;20204;-78
2023/05/31 03:55:54;;;;;;;2.00;1.60;;;19.30;47.10;;;;;;5054606;28;20615;-80
2023/05/31 03:58:21;;;;;;;4.23;2.20;;;19.30;47.10;;;;;;5054135;28;20221;-79
2023/05/31 04:00:48;;;;;;;2.10;1.87;;;19.30;47.10;;;;;;5054487;28;20204;-76
2023/05/31 04:03:17;;;;;;;5.70;2.40;;;19.30;47.10;;;;;;5053919;28;20625;-80
2023/05/31 04:05:44;;;;;;;3.07;2.10;;;19.30;47.10;;;;;;5053863;28;20202;-77
2023/05/31 04:08:11;;;;;;;2.97;1.90;;;19.30;47.20;;;;;;5050932;28;20533;-81
2023/05/31 04:10:38;;;;;;;3.80;2.10;;;19.30;47.30;;;;;;5047051;28;20448;-77
2023/05/31 04:13:05;;;;;;;2.60;2.10;;;19.30;47.20;;;;;;5053911;28;20308;-78
2023/05/31 04:15:32;;;;;;;3.57;2.30;;;19.30;47.30;;;;;;5054199;28;20538;-77
2023/05/31 04:17:59;;;;;;;4.47;2.17;;;19.30;47.30;;;;;;5036546;28;20770;-78
2023/05/31 04:20:28;;;;;;;3.53;2.30;;;19.40;47.60;;;;;;5043860;28;20706;-79
2023/05/31 04:22:54;;;;;;;5.23;2.43;;;19.40;47.50;;;;;;5049891;28;20551;-78
2023/05/31 04:25:21;;;;;;;3.73;2.07;;;19.40;47.70;;;;;;5053834;28;20206;-79
2023/05/31 04:27:49;;;;;;;4.43;2.47;;;19.40;48.10;;;;;;5053535;28;20462;-76
2023/05/31 04:30:16;;;;;;;7.83;2.50;;;19.40;48.40;;;;;;5053929;28;20801;-76
2023/05/31 04:32:44;;;;;;;5.67;2.30;;;19.40;48.40;;;;;;5053710;28;20288;-79
2023/05/31 04:35:11;;;;;;;4.10;2.20;;;19.40;48.60;;;;;;5053035;28;20542;-78
2023/05/31 04:37:39;;;;;;;5.00;2.40;;;19.40;48.60;;;;;;5052479;28;20229;-77
2023/05/31 04:40:09;;;;;;;4.53;2.33;;;19.50;49.20;;;;;;5044619;28;20212;-79
2023/05/31 04:42:36;;;;;;;5.17;2.40;;;19.50;49.40;;;;;;5053639;28;20197;-80
2023/05/31 04:45:04;;;;;;;5.30;2.60;;;19.50;49.60;;;;;;5053473;28;20464;-80
2023/05/31 04:47:31;;;;;;;5.67;2.67;;;19.40;49.70;;;;;;5053838;28;20209;-79
2023/05/31 04:49:59;;;;;;;4.30;2.03;;;19.50;49.90;;;;;;5042888;28;20225;-82
2023/05/31 04:52:29;;;;;;;6.67;2.50;;;19.50;49.40;;;;;;5048171;28;20225;-79
2023/05/31 04:54:58;;;;;;;7.37;2.97;;;19.50;49.70;;;;;;5054004;28;20550;-79
2023/05/31 04:57:26;;;;;;;7.07;3.00;;;19.50;50.20;;;;;;5053820;28;20257;-77
2023/05/31 04:59:53;;;;;;;6.50;2.70;;;19.50;50.80;;;;;;5053532;28;20202;-75
2023/05/31 05:02:21;;;;;;;5.00;2.40;;;19.60;50.20;;;;;;5053940;28;20284;-77
2023/05/31 05:04:49;;;;;;;8.57;3.20;;;19.60;50.20;;;;;;5051306;28;20633;-78
2023/05/31 05:07:16;;;;;;;6.23;2.70;;;19.60;50.40;;;;;;5053822;28;20202;-79
2023/05/31 05:09:43;;;;;;;6.47;2.27;;;19.60;50.20;;;;;;5053578;28;20229;-79
2023/05/31 05:12:12;;;;;;;3.63;2.40;;;19.70;49.90;;;;;;5053660;28;20316;-81
2023/05/31 05:14:39;;;;;;;4.80;2.07;;;19.70;49.90;;;;;;5053229;28;20635;-77
2023/05/31 05:17:06;;;;;;;3.07;2.17;;;19.80;49.80;;;;;;5052782;28;20309;-76
2023/05/31 05:19:34;;;;;;;3.40;2.07;;;19.80;49.80;;;;;;5052934;28;20287;-77
2023/05/31 05:22:01;;;;;;;3.47;1.90;;;19.80;49.70;;;;;;5051702;28;20218;-77
2023/05/31 05:24:27;;;;;;;4.13;2.40;;;19.80;49.50;;;;;;5052961;28;20293;-77
2023/05/31 05:26:55;;;;;;;4.87;2.20;;;19.90;49.60;;;;;;5053312;28;20306;-81
2023/05/31 05:29:23;;;;;;;3.57;2.10;;;19.90;49.20;;;;;;5045896;28;20298;-79
2023/05/31 05:31:50;;;;;;;3.53;2.00;;;20.00;49.30;;;;;;5048634;28;20202;-77
2023/05/31 05:34:17;;;;;;;3.40;2.30;;;20.00;49.30;;;;;;5030505;28;20588;-78
2023/05/31 05:36:44;;;;;;;2.63;2.00;;;20.10;49.60;;;;;;5048608;28;20201;-79
2023/05/31 05:39:11;;;;;;;4.13;2.20;;;20.10;49.20;;;;;;5052534;28;20749;-80
2023/05/31 05:41:38;;;;;;;3.33;2.27;;;20.20;49.30;;;;;;5052441;28;20259;-80
2023/05/31 05:44:05;;;;;;;4.07;2.77;;;20.20;49.50;;;;;;5052381;28;20718;-80
2023/05/31 05:46:33;;;;;;;3.50;2.30;;;20.20;49.30;;;;;;5046951;28;20201;-80
2023/05/31 05:49:00;;;;;;;4.97;2.47;;;20.20;49.20;;;;;;5046593;28;20202;-79
2023/05/31 05:51:27;;;;;;;3.57;2.40;;;20.30;48.80;;;;;;5055874;28;20201;-79
2023/05/31 05:53:54;;;;;;;3.27;2.30;;;20.30;49.00;;;;;;5056543;28;20217;-80
2023/05/31 05:56:21;;;;;;;3.37;1.93;;;20.40;48.90;;;;;;5056365;28;20320;-79
2023/05/31 05:58:48;;;;;;;1.93;1.70;;;20.40;48.70;;;;;;5053468;28;20229;-77
2023/05/31 06:01:18;;;;;;;4.87;2.63;;;20.50;49.00;;;;;;5048324;28;20205;-75
2023/05/31 06:03:47;;;;;;;4.53;2.40;;;20.60;48.40;;;;;;5055543;28;20230;-78
2023/05/31 06:06:14;;;;;;;4.57;2.33;;;20.60;48.20;;;;;;5030786;28;20208;-78
2023/05/31 06:08:41;;;;;;;2.87;2.10;;;20.70;48.40;;;;;;5036653;28;20198;-80
2023/05/31 06:11:08;;;;;;;3.70;2.57;;;20.70;47.50;;;;;;5055270;28;20245;-79
2023/05/31 06:13:35;;;;;;;4.90;2.60;;;20.80;47.60;;;;;;5041849;28;20206;-79
2023/05/31 06:16:04;;;;;;;4.33;2.30;;;20.80;47.30;;;;;;5045948;28;20208;-77
2023/05/31 06:18:31;;;;;;;4.73;2.10;;;20.80;47.30;;;;;;5054679;28;20299;-77
2023/05/31 06:20:59;;;;;;;3.83;2.50;;;20.90;47.30;;;;;;5003981;28;20297;-78
2023/05/31 06:23:26;;;;;;;3.23;2.13;;;21.00;47.80;;;;;;5035639;28;20252;-76
2023/05/31 06:25:53;;;;;;;4.10;2.10;;;21.00;47.30;;;;;;5045098;28;20229;-80
2023/05/31 06:28:20;;;;;;;4.93;2.40;;;21.10;47.30;;;;;;5034630;28;20202;-74
2023/05/31 06:30:47;;;;;;;4.17;2.30;;;21.10;47.00;;;;;;5046769;28;20289;-77
2023/05/31 06:33:14;;;;;;;6.47;2.50;;;21.10;46.90;;;;;;5046187;28;20206;-76
2023/05/31 06:35:42;;;;;;;5.67;2.40;;;21.20;46.80;;;;;;5051668;28;20198;-77
2023/05/31 06:38:14;;;;;;;4.40;2.40;;;21.20;46.70;;;;;;5048532;28;20233;-79
2023/05/31 06:40:42;;;;;;;2.20;1.80;;;21.30;47.10;;;;;;5053660;28;20753;-79
2023/05/31 06:43:09;;;;;;;5.00;2.63;;;21.40;47.20;;;;;;5053619;28;20202;-77
2023/05/31 06:45:36;;;;;;;4.67;2.53;;;21.50;46.70;;;;;;5052996;28;20197;-77
2023/05/31 06:48:02;;;;;;;3.47;2.30;;;21.60;46.70;;;;;;5053404;28;20292;-80
2023/05/31 06:50:29;;;;;;;3.30;2.20;;;21.70;46.80;;;;;;5053827;28;20240;-77
2023/05/31 06:52:56;;;;;;;4.70;2.43;;;21.80;46.40;;;;;;5053346;28;20646;-79
2023/05/31 06:55:25;;;;;;;4.93;2.20;;;21.90;46.40;;;;;;5053825;28;20284;-75
2023/05/31 06:57:51;;;;;;;5.23;2.40;;;22.00;46.80;;;;;;5052629;28;20313;-74
2023/05/31 07:00:19;;;;;;;4.73;2.43;;;22.10;46.50;;;;;;5046067;28;20628;-80
2023/05/31 07:02:46;;;;;;;9.00;2.20;;;22.10;46.40;;;;;;5053476;28;20202;-74
2023/05/31 07:05:13;;;;;;;3.10;2.10;;;22.20;46.60;;;;;;5035084;28;20205;-76
2023/05/31 07:07:40;;;;;;;2.93;2.13;;;22.30;47.00;;;;;;5052476;28;20226;-75
2023/05/31 07:10:08;;;;;;;3.83;2.07;;;22.30;46.30;;;;;;5052611;28;20201;-80
2023/05/31 07:12:36;;;;;;;4.80;2.20;;;22.40;46.80;;;;;;5052932;28;20296;-77
2023/05/31 07:15:04;;;;;;;5.93;2.20;;;22.50;45.80;;;;;;5052832;28;20289;-77
2023/05/31 07:17:30;;;;;;;6.37;2.23;;;22.50;46.40;;;;;;5052483;28;20296;-77
2023/05/31 07:19:57;;;;;;;6.93;2.13;;;22.60;46.20;;;;;;5052995;28;20209;-78
2023/05/31 07:22:24;;;;;;;3.77;2.40;;;22.70;46.50;;;;;;5052553;28;20311;-76
2023/05/31 07:24:51;;;;;;;4.73;2.03;;;22.80;45.90;;;;;;5052954;28;20194;-79
2023/05/31 07:27:19;;;;;;;4.60;2.20;;;22.90;45.70;;;;;;5052247;28;20216;-80
2023/05/31 07:29:48;;;;;;;4.20;2.33;;;23.00;45.80;;;;;;5052438;28;20212;-77
2023/05/31 07:32:15;;;;;;;3.47;2.47;;;23.00;45.40;;;;;;5052861;28;20216;-80
2023/05/31 07:34:42;;;;;;;5.40;2.30;;;23.10;45.10;;;;;;5053707;28;20209;-80
2023/05/31 07:37:09;;;;;;;4.07;2.37;;;23.20;45.40;;;;;;5053565;28;20229;-77
2023/05/31 07:39:36;;;;;;;2.90;2.13;;;23.20;44.90;;;;;;5052947;28;20697;-79
2023/05/31 07:42:03;;;;;;;7.90;2.73;;;23.30;45.30;;;;;;5053350;28;20206;-79
2023/05/31 07:44:30;;;;;;;2.73;2.33;;;23.50;45.50;;;;;;5052384;28;20222;-79
2023/05/31 07:46:59;;;;;;;4.10;2.53;;;23.50;44.80;;;;;;5052850;28;20190;-78
2023/05/31 07:49:26;;;;;;;5.80;2.13;;;23.60;45.00;;;;;;5039383;28;20209;-78
2023/05/31 07:51:53;;;;;;;4.00;2.33;;;23.70;45.10;;;;;;5033311;28;20294;-79
2023/05/31 07:54:20;;;;;;;3.87;2.17;;;23.80;44.70;;;;;;5015584;28;20213;-77
2023/05/31 07:56:47;;;;;;;5.60;2.10;;;23.90;45.10;;;;;;5033399;28;20242;-79
2023/05/31 07:59:14;;;;;;;5.53;2.33;;;24.00;44.80;;;;;;5040636;28;20256;-78
2023/05/31 08:01:40;;;;;;;5.10;2.30;;;24.10;44.60;;;;;;5054153;28;20281;-78
2023/05/31 08:04:09;;;;;;;4.67;2.60;;;24.10;44.30;;;;;;5054532;28;20201;-78
2023/05/31 08:06:37;;;;;;;5.13;2.23;;;24.20;45.20;;;;;;5053344;28;20229;-77
2023/05/31 08:09:06;;;;;;;3.63;2.50;;;24.30;44.40;;;;;;5052890;28;20571;-82
2023/05/31 08:11:35;;;;;;;5.13;2.40;;;24.40;44.60;;;;;;5052963;28;20201;-75
2023/05/31 08:14:02;;;;;;;5.53;2.57;;;24.50;44.10;;;;;;5032782;28;20213;-79
2023/05/31 08:16:29;;;;;;;2.60;2.30;;;24.50;43.70;;;;;;5050450;28;20213;-77
2023/05/31 08:18:56;;;;;;;4.57;2.27;;;24.60;43.10;;;;;;5053086;28;20306;-79
2023/05/31 08:21:24;;;;;;;6.17;2.37;;;24.60;43.40;;;;;;5052663;28;20309;-76
2023/05/31 08:23:52;;;;;;;5.77;2.30;;;24.70;44.30;;;;;;5001344;28;20285;-76
2023/05/31 08:26:18;;;;;;;3.03;2.40;;;24.80;44.00;;;;;;5034324;28;20230;-78
2023/05/31 08:28:45;;;;;;;8.93;2.60;;;24.90;43.90;;;;;;5052500;28;20205;-79
2023/05/31 08:31:12;;;;;;;6.60;2.30;;;25.00;44.10;;;;;;5052972;28;20209;-78
2023/05/31 08:33:54;;;;;;;3.37;2.40;;;25.00;43.50;;;;;;4997040;28;20321;-79
2023/05/31 08:36:20;;;;;;;4.83;2.50;;;25.10;43.70;;;;;;5051662;28;20198;-79
2023/05/31 08:38:49;;;;;;;3.43;2.10;;;25.20;43.30;;;;;;5051114;28;20229;-79
2023/05/31 08:41:16;;;;;;;6.33;2.87;;;25.20;42.90;;;;;;5052359;28;20755;-80
2023/05/31 08:43:43;;;;;;;3.37;2.20;;;25.30;43.00;;;;;;5052294;28;20206;-79
2023/05/31 08:46:11;;;;;;;4.97;2.47;;;25.40;43.00;;;;;;5052754;28;20197;-78
2023/05/31 08:48:44;;;;;;;4.80;2.77;;;25.50;43.00;;;;;;5040963;28;20190;-78
2023/05/31 08:51:11;;;;;;;4.27;2.20;;;25.60;43.30;;;;;;5029916;28;20212;-80
2023/05/31 08:53:39;;;;;;;6.83;2.70;;;25.70;42.60;;;;;;5032929;28;20232;-78
2023/05/31 08:56:08;;;;;;;4.83;2.30;;;25.80;43.30;;;;;;5032794;28;20202;-78
2023/05/31 08:58:37;;;;;;;5.17;2.67;;;25.80;42.90;;;;;;5033619;28;20218;-77
2023/05/31 09:01:04;;;;;;;4.53;2.03;;;25.90;42.70;;;;;;5051999;28;20702;-76
2023/05/31 09:03:32;;;;;;;4.03;2.30;;;26.00;43.30;;;;;;5051745;28;20206;-79
2023/05/31 09:05:59;;;;;;;4.73;2.53;;;26.10;42.60;;;;;;5051846;28;20244;-77
2023/05/31 09:08:26;;;;;;;4.10;2.40;;;26.10;42.70;;;;;;5052133;28;20289;-77
2023/05/31 09:10:53;;;;;;;2.90;2.10;;;26.20;41.90;;;;;;5051959;28;20201;-77
2023/05/31 09:13:22;;;;;;;5.47;2.60;;;26.30;42.00;;;;;;5052116;28;20779;-79
2023/05/31 09:15:50;;;;;;;3.00;2.20;;;26.30;41.60;;;;;;5051923;28;20297;-76
2023/05/31 09:18:20;;;;;;;6.97;2.73;;;26.40;42.20;;;;;;5051928;28;20227;-78
2023/05/31 09:20:48;;;;;;;3.07;2.27;;;26.50;41.70;;;;;;5052866;28;20242;-78
2023/05/31 09:23:17;;;;;;;4.03;2.30;;;26.50;41.20;;;;;;5058452;28;20213;-79
2023/05/31 09:25:45;;;;;;;4.97;2.70;;;26.60;41.90;;;;;;5058487;28;20709;-76
2023/05/31 09:28:13;;;;;;;4.40;2.50;;;26.70;41.90;;;;;;5058124;28;20293;-77
2023/05/31 09:30:42;;;;;;;5.23;2.53;;;26.70;41.30;;;;;;5059041;28;20838;-81
2023/05/31 09:33:09;;;;;;;3.63;2.20;;;26.80;41.20;;;;;;5058653;28;20438;-79
2023/05/31 09:35:35;;;;;;;3.53;2.20;;;26.90;41.50;;;;;;5058664;28;20316;-80
2023/05/31 09:38:07;;;;;;;4.47;2.60;;;27.00;41.90;;;;;;5058726;28;20290;-80
2023/05/31 09:40:34;;;;;;;5.83;2.60;;;27.10;41.20;;;;;;5058187;28;20209;-81
2023/05/31 09:43:02;;;;;;;3.07;2.30;;;27.10;41.40;;;;;;5040847;28;20206;-78
2023/05/31 09:45:29;;;;;;;3.13;2.43;;;27.20;41.00;;;;;;5058441;28;20227;-79
2023/05/31 09:47:58;;;;;;;4.30;2.50;;;27.20;41.00;;;;;;5040610;28;20561;-79
2023/05/31 09:50:25;;;;;;;2.97;2.10;;;27.30;40.90;;;;;;5058427;28;20210;-78
2023/05/31 09:52:57;;;;;;;5.10;2.40;;;27.40;40.80;;;;;;5058339;28;20301;-76
2023/05/31 09:55:25;;;;;;;5.73;2.50;;;27.40;41.00;;;;;;5058453;28;20211;-79
2023/05/31 09:57:55;;;;;;;4.10;2.57;;;27.50;40.20;;;;;;5057762;28;20562;-78
2023/05/31 10:00:22;;;;;;;4.37;2.40;;;27.50;39.80;;;;;;5058699;28;20234;-77
2023/05/31 10:02:50;;;;;;;3.50;2.60;;;27.50;39.70;;;;;;5057741;28;20202;-76
2023/05/31 10:05:19;;;;;;;4.50;2.13;;;27.60;39.60;;;;;;5058454;28;20306;-76
2023/05/31 10:07:48;;;;;;;6.07;2.50;;;27.60;39.70;;;;;;5058141;28;20718;-78
2023/05/31 10:10:19;;;;;;;3.63;2.40;;;27.80;39.00;;;;;;5038169;28;20236;-77
2023/05/31 10:12:51;;;;;;;2.93;2.30;;;27.90;39.50;;;;;;5056591;28;20231;-78
2023/05/31 10:15:21;;;;;;;3.87;2.37;;;28.00;39.40;;;;;;5057848;28;20213;-79
2023/05/31 10:17:56;;;;;;;3.70;2.40;;;28.00;38.30;;;;;;5058272;28;20293;-78
2023/05/31 10:20:28;;;;;;;5.37;2.50;;;28.00;38.20;;;;;;5057667;28;20235;-79
2023/05/31 10:22:58;;;;;;;6.90;2.60;;;28.10;37.50;;;;;;5057287;28;20243;-78
2023/05/31 10:25:30;;;;;;;10.50;2.87;;;28.20;37.20;;;;;;5057918;28;20286;-79
2023/05/31 10:28:01;;;;;;;5.77;2.70;;;28.30;37.60;;;;;;5054995;28;20231;-77
2023/05/31 10:30:31;;;;;;;2.87;2.30;;;28.40;37.00;;;;;;5057618;28;20209;-78
2023/05/31 10:33:04;;;;;;;5.37;2.70;;;28.40;37.60;;;;;;5046406;28;20221;-78
2023/05/31 10:35:32;;;;;;;6.13;2.60;;;28.50;36.50;;;;;;5035353;28;20300;-78
2023/05/31 10:38:00;;;;;;;6.67;2.53;;;28.60;36.90;;;;;;5055215;28;20205;-80
2023/05/31 10:40:34;;;;;;;4.27;2.53;;;28.70;37.40;;;;;;5054229;28;20260;-79
2023/05/31 10:43:08;;;;;;;5.43;2.83;;;28.70;35.60;;;;;;5035031;28;20209;-77
2023/05/31 10:45:39;;;;;;;6.00;2.60;;;28.80;35.10;;;;;;5034905;28;20229;-77
2023/05/31 10:48:17;;;;;;;4.60;2.30;;;28.90;36.00;;;;;;5041241;28;20204;-77
2023/05/31 10:50:54;;;;;;;4.70;2.50;;;28.90;35.70;;;;;;5046430;28;20619;-76
2023/05/31 10:53:21;;;;;;;4.20;2.40;;;29.00;35.90;;;;;;5041301;28;20201;-78
2023/05/31 10:55:49;;;;;;;3.27;2.10;;;28.90;35.60;;;;;;5044293;28;20228;-78
2023/05/31 10:58:27;;;;;;;3.90;2.60;;;29.00;35.90;;;;;;5043674;28;20294;-79
2023/05/31 11:00:55;;;;;;;7.33;2.80;;;29.00;35.80;;;;;;5053469;28;20207;-78
2023/05/31 11:03:23;;;;;;;4.73;2.80;;;29.00;36.40;;;;;;5032834;28;20198;-79
2023/05/31 11:06:00;;;;;;;8.37;2.60;;;29.10;35.80;;;;;;5001144;28;20225;-78
2023/05/31 11:08:28;;;;;;;3.63;2.27;;;29.10;35.00;;;;;;5053777;28;20201;-79
2023/05/31 11:11:44;;;;;;;4.23;2.53;;;29.10;36.00;;;;;;4998826;28;20639;-79
2023/05/31 11:14:27;;;;;;;5.57;2.60;;;29.20;33.90;;;;;;5044926;28;20201;-80
2023/05/31 11:17:13;;;;;;;4.93;2.43;;;29.30;35.60;;;;;;5050935;28;20682;-79
2023/05/31 11:19:43;;;;;;;5.53;2.20;;;29.30;33.60;;;;;;5053192;28;20646;-77
2023/05/31 11:22:11;;;;;;;4.10;1.90;;;29.40;34.00;;;;;;5039811;28;20284;-78
2023/05/31 11:24:39;;;;;;;3.77;2.20;;;29.40;34.70;;;;;;5034421;28;20732;-77
2023/05/31 11:27:13;;;;;;;4.47;2.40;;;29.50;34.60;;;;;;5034833;28;20209;-77
2023/05/31 11:29:58;;;;;;;6.10;2.60;;;29.60;35.50;;;;;;5034586;28;20234;-78
2023/05/31 11:33:08;;;;;;;6.17;2.60;;;29.60;34.50;;;;;;5044473;28;20285;-78
2023/05/31 11:35:35;;;;;;;3.47;2.40;;;29.60;34.60;;;;;;5051297;28;20233;-77
2023/05/31 11:38:07;;;;;;;4.80;2.47;;;29.70;35.10;;;;;;5052648;28;20201;-77
2023/05/31 11:40:35;;;;;;;3.57;2.43;;;29.70;35.10;;;;;;5035707;28;20229;-78
2023/05/31 11:43:12;;;;;;;6.90;2.33;;;29.80;35.90;;;;;;5053339;28;20739;-78
2023/05/31 11:45:52;;;;;;;3.33;2.33;;;29.90;36.00;;;;;;5052248;28;20259;-77
2023/05/31 11:48:36;;;;;;;2.90;2.40;;;29.90;35.20;;;;;;5053323;28;20196;-77
2023/05/31 11:51:03;;;;;;;3.80;2.20;;;30.00;36.00;;;;;;5044294;28;20212;-78
2023/05/31 11:53:31;;;;;;;2.73;2.10;;;30.10;34.20;;;;;;5032640;28;20669;-79
2023/05/31 11:55:59;;;;;;;4.37;2.37;;;30.10;34.10;;;;;;5024934;28;20348;-77
2023/05/31 11:58:28;;;;;;;4.93;2.17;;;30.10;35.60;;;;;;5052588;28;20571;-76
2023/05/31 12:00:59;;;;;;;2.87;2.07;;;30.10;34.50;;;;;;5052433;28;20704;-75
2023/05/31 12:03:26;;;;;;;3.33;2.30;;;30.10;34.70;;;;;;5051778;28;20328;-75
2023/05/31 12:05:58;;;;;;;3.67;2.47;;;30.10;34.20;;;;;;5052323;28;20201;-79
2023/05/31 12:08:26;;;;;;;4.43;2.47;;;30.10;33.30;;;;;;5052575;28;20698;-78
2023/05/31 12:10:54;;;;;;;2.60;2.00;;;30.10;33.80;;;;;;5052513;28;20766;-76
2023/05/31 12:13:21;;;;;;;5.77;2.17;;;30.10;34.10;;;;;;5051913;28;20647;-76
2023/05/31 12:15:55;;;;;;;6.43;2.57;;;30.10;34.10;;;;;;5051953;28;20229;-76
2023/05/31 12:18:23;;;;;;;6.90;2.50;;;30.10;34.00;;;;;;5052241;28;20201;-78
2023/05/31 12:20:50;;;;;;;5.07;2.40;;;30.20;33.60;;;;;;5052370;28;20233;-77
2023/05/31 12:23:18;;;;;;;5.03;2.50;;;30.30;34.00;;;;;;4996890;28;20226;-77
2023/05/31 12:25:49;;;;;;;4.00;2.23;;;30.30;34.60;;;;;;5048933;28;20205;-76
2023/05/31 12:28:20;;;;;;;4.57;2.27;;;30.30;34.90;;;;;;5036616;28;20281;-78
2023/05/31 12:30:47;;;;;;;4.97;2.30;;;30.30;35.00;;;;;;5043692;28;20285;-80
2023/05/31 12:33:15;;;;;;;3.20;2.10;;;30.40;34.40;;;;;;5051600;28;20209;-76
2023/05/31 12:35:44;;;;;;;3.67;2.40;;;30.50;34.40;;;;;;5051850;28;20216;-78
2023/05/31 12:38:11;;;;;;;2.93;2.17;;;30.50;34.20;;;;;;5051495;28;20232;-78
2023/05/31 12:40:39;;;;;;;4.87;2.40;;;30.50;34.40;;;;;;5041095;28;20681;-80
2023/05/31 12:43:06;;;;;;;4.67;2.20;;;30.50;34.40;;;;;;5051291;28;20591;-79
2023/05/31 12:45:38;;;;;;;3.03;2.30;;;30.60;33.60;;;;;;5052046;28;20217;-76
2023/05/31 12:48:07;;;;;;;4.07;2.53;;;30.60;33.60;;;;;;5051624;28;20198;-78
2023/05/31 12:50:35;;;;;;;4.03;2.43;;;30.60;33.50;;;;;;5047398;28;20222;-78
2023/05/31 12:53:06;;;;;;;4.93;2.33;;;30.50;32.80;;;;;;5043355;28;20296;-78
2023/05/31 12:55:33;;;;;;;3.70;2.37;;;30.60;33.30;;;;;;5050591;28;20222;-77